N7860A KSAN-KLAX
Flight info
| Callsign | N7860A |
|---|---|
| Flight time | N/A |
| Altitude | 6000 |
| Route | DCT OCN V23 SLI DCT |
| Aircraft | C172/L-VGD/C |
Departure
| Time | 2026-04-25 23:15 |
|---|---|
| Airport | San Diego International Airport (KSAN) |
Arrival
| Time | N/A |
|---|---|
| Airport | Los Angeles International Airport (KLAX) |
| Time | Latitude | Longitude | Altitude | Speed | Heading |
|---|---|---|---|---|---|
| 2026-04-25 22:51 | 32.73222 | -117.19119 | 20 ft | 0 kts | 290° |
| 2026-04-25 23:10 | 32.73230 | -117.19134 | 20 ft | 3 kts | 333° |
| 2026-04-25 23:10 | 32.73253 | -117.19101 | 20 ft | 7 kts | 100° |
| 2026-04-25 23:11 | 32.73260 | -117.19045 | 20 ft | 11 kts | 70° |
| 2026-04-25 23:11 | 32.73245 | -117.18936 | 20 ft | 15 kts | 108° |
| 2026-04-25 23:11 | 32.73217 | -117.18814 | 22 ft | 17 kts | 110° |
| 2026-04-25 23:11 | 32.73178 | -117.18659 | 22 ft | 24 kts | 106° |
| 2026-04-25 23:12 | 32.73126 | -117.18448 | 18 ft | 28 kts | 104° |
| 2026-04-25 23:12 | 32.73072 | -117.18226 | 17 ft | 27 kts | 108° |
| 2026-04-25 23:12 | 32.73026 | -117.18033 | 15 ft | 22 kts | 105° |
| 2026-04-25 23:12 | 32.72986 | -117.17872 | 14 ft | 19 kts | 105° |
| 2026-04-25 23:13 | 32.72955 | -117.17737 | 13 ft | 15 kts | 106° |
| 2026-04-25 23:13 | 32.72950 | -117.17685 | 14 ft | 0 kts | 74° |
| 2026-04-25 23:14 | 32.72973 | -117.17620 | 16 ft | 19 kts | 60° |
| 2026-04-25 23:14 | 32.73024 | -117.17593 | 17 ft | 0 kts | 284° |
| 2026-04-25 23:14 | 32.73047 | -117.17691 | 16 ft | 36 kts | 285° |
| 2026-04-25 23:15 | 32.73160 | -117.18150 | 19 ft | 76 kts | 288° |
| 2026-04-25 23:15 | 32.73318 | -117.18750 | 286 ft | 70 kts | 282° |
| 2026-04-25 23:15 | 32.73445 | -117.19269 | 640 ft | 60 kts | 285° |
| 2026-04-25 23:15 | 32.73614 | -117.19823 | 751 ft | 77 kts | 291° |
| 2026-04-25 23:16 | 32.74011 | -117.20331 | 852 ft | 94 kts | 308° |
| 2026-04-25 23:16 | 32.74487 | -117.20859 | 1122 ft | 95 kts | 321° |
| 2026-04-25 23:16 | 32.75070 | -117.21245 | 1373 ft | 98 kts | 335° |
| 2026-04-25 23:16 | 32.75597 | -117.21455 | 1781 ft | 74 kts | 334° |
| 2026-04-25 23:17 | 32.76163 | -117.21812 | 1783 ft | 97 kts | 316° |
| 2026-04-25 23:17 | 32.76695 | -117.22263 | 2062 ft | 92 kts | 314° |
| 2026-04-25 23:17 | 32.77240 | -117.22689 | 2326 ft | 92 kts | 322° |
| 2026-04-25 23:17 | 32.77758 | -117.23090 | 2647 ft | 89 kts | 320° |
| 2026-04-25 23:18 | 32.78290 | -117.23506 | 2855 ft | 95 kts | 318° |
| 2026-04-25 23:18 | 32.78828 | -117.23933 | 3084 ft | 94 kts | 322° |
| 2026-04-25 23:18 | 32.79362 | -117.24373 | 3349 ft | 91 kts | 321° |
| 2026-04-25 23:18 | 32.79884 | -117.24793 | 3615 ft | 93 kts | 320° |
| 2026-04-25 23:19 | 32.80486 | -117.25097 | 3853 ft | 96 kts | 342° |
| 2026-04-25 23:19 | 32.81120 | -117.25332 | 4073 ft | 95 kts | 338° |
| 2026-04-25 23:19 | 32.81750 | -117.25570 | 4238 ft | 95 kts | 339° |
| 2026-04-25 23:19 | 32.82380 | -117.25808 | 4423 ft | 94 kts | 339° |
| 2026-04-25 23:20 | 32.83002 | -117.26045 | 4599 ft | 94 kts | 339° |
| 2026-04-25 23:20 | 32.83415 | -117.26203 | 4711 ft | 94 kts | 339° |
| 2026-04-25 23:20 | 32.84041 | -117.26440 | 4891 ft | 94 kts | 337° |
| 2026-04-25 23:20 | 32.84666 | -117.26679 | 5041 ft | 94 kts | 339° |
| 2026-04-25 23:21 | 32.85292 | -117.26918 | 5181 ft | 94 kts | 339° |
| 2026-04-25 23:21 | 32.85919 | -117.27156 | 5318 ft | 94 kts | 338° |
| 2026-04-25 23:21 | 32.86544 | -117.27396 | 5468 ft | 94 kts | 338° |
| 2026-04-25 23:21 | 32.87159 | -117.27628 | 5615 ft | 93 kts | 337° |
| 2026-04-25 23:22 | 32.87784 | -117.27868 | 5749 ft | 94 kts | 336° |
| 2026-04-25 23:22 | 32.88401 | -117.28103 | 5917 ft | 93 kts | 335° |
| 2026-04-25 23:22 | 32.89033 | -117.28347 | 5976 ft | 103 kts | 338° |
| 2026-04-25 23:23 | 32.90478 | -117.28893 | 5983 ft | 114 kts | 338° |
| 2026-04-25 23:23 | 32.91254 | -117.29187 | 5982 ft | 118 kts | 337° |
| 2026-04-25 23:23 | 32.92045 | -117.29487 | 5978 ft | 118 kts | 337° |
| 2026-04-25 23:23 | 32.92800 | -117.29770 | 5973 ft | 111 kts | 339° |
| 2026-04-25 23:24 | 32.93530 | -117.30051 | 5972 ft | 110 kts | 336° |
| 2026-04-25 23:24 | 32.94270 | -117.30336 | 5981 ft | 114 kts | 336° |
| 2026-04-25 23:24 | 32.95045 | -117.30631 | 5978 ft | 120 kts | 338° |
| 2026-04-25 23:24 | 32.95857 | -117.30939 | 5976 ft | 124 kts | 339° |
| 2026-04-25 23:25 | 32.96674 | -117.31249 | 5971 ft | 122 kts | 339° |
| 2026-04-25 23:25 | 32.97460 | -117.31549 | 5964 ft | 116 kts | 338° |
| 2026-04-25 23:25 | 32.98204 | -117.31834 | 5961 ft | 111 kts | 337° |
| 2026-04-25 23:25 | 32.98930 | -117.32114 | 5956 ft | 108 kts | 338° |
| 2026-04-25 23:26 | 32.99636 | -117.32388 | 5961 ft | 106 kts | 338° |
| 2026-04-25 23:26 | 33.00341 | -117.32659 | 5959 ft | 107 kts | 336° |
| 2026-04-25 23:26 | 33.01047 | -117.32931 | 5964 ft | 107 kts | 336° |
| 2026-04-25 23:26 | 33.01754 | -117.33202 | 5970 ft | 106 kts | 336° |
| 2026-04-25 23:27 | 33.02461 | -117.33474 | 5969 ft | 107 kts | 337° |
| 2026-04-25 23:27 | 33.03173 | -117.33746 | 5966 ft | 108 kts | 338° |
| 2026-04-25 23:27 | 33.03884 | -117.34019 | 5969 ft | 108 kts | 336° |
| 2026-04-25 23:27 | 33.04601 | -117.34292 | 5969 ft | 108 kts | 335° |
| 2026-04-25 23:28 | 33.05310 | -117.34564 | 6005 ft | 107 kts | 337° |
| 2026-04-25 23:28 | 33.06024 | -117.34839 | 6007 ft | 108 kts | 337° |
| 2026-04-25 23:28 | 33.06743 | -117.35115 | 6009 ft | 109 kts | 338° |
| 2026-04-25 23:28 | 33.07475 | -117.35395 | 6020 ft | 112 kts | 337° |
| 2026-04-25 23:29 | 33.08232 | -117.35688 | 6019 ft | 118 kts | 338° |
| 2026-04-25 23:29 | 33.09036 | -117.35998 | 6018 ft | 124 kts | 338° |
| 2026-04-25 23:29 | 33.09860 | -117.36312 | 6014 ft | 125 kts | 339° |
| 2026-04-25 23:29 | 33.10693 | -117.36630 | 6021 ft | 127 kts | 338° |
| 2026-04-25 23:30 | 33.11529 | -117.36950 | 6022 ft | 129 kts | 337° |
| 2026-04-25 23:30 | 33.12380 | -117.37274 | 6017 ft | 128 kts | 338° |
| 2026-04-25 23:30 | 33.13231 | -117.37602 | 6020 ft | 129 kts | 338° |
| 2026-04-25 23:30 | 33.14090 | -117.37934 | 6014 ft | 130 kts | 338° |
| 2026-04-25 23:31 | 33.14950 | -117.38263 | 6019 ft | 130 kts | 337° |
| 2026-04-25 23:31 | 33.15798 | -117.38586 | 6013 ft | 126 kts | 337° |
| 2026-04-25 23:31 | 33.16628 | -117.38908 | 6005 ft | 124 kts | 338° |
| 2026-04-25 23:31 | 33.17442 | -117.39222 | 6003 ft | 121 kts | 336° |
| 2026-04-25 23:32 | 33.18239 | -117.39529 | 6002 ft | 118 kts | 338° |
| 2026-04-25 23:32 | 33.19020 | -117.39832 | 6003 ft | 118 kts | 338° |
| 2026-04-25 23:32 | 33.19785 | -117.40125 | 6003 ft | 116 kts | 336° |
| 2026-04-25 23:32 | 33.20556 | -117.40422 | 6002 ft | 116 kts | 335° |
| 2026-04-25 23:33 | 33.21325 | -117.40719 | 5998 ft | 116 kts | 338° |
| 2026-04-25 23:33 | 33.22091 | -117.41013 | 6005 ft | 116 kts | 337° |
| 2026-04-25 23:33 | 33.22862 | -117.41311 | 6007 ft | 116 kts | 336° |
| 2026-04-25 23:33 | 33.23637 | -117.41611 | 6013 ft | 118 kts | 337° |
| 2026-04-25 23:34 | 33.24335 | -117.42078 | 6005 ft | 113 kts | 310° |
| 2026-04-25 23:34 | 33.24893 | -117.42748 | 6012 ft | 115 kts | 313° |
| 2026-04-25 23:34 | 33.25478 | -117.43418 | 6018 ft | 117 kts | 312° |
| 2026-04-25 23:34 | 33.26064 | -117.44100 | 6016 ft | 118 kts | 311° |
| 2026-04-25 23:35 | 33.26654 | -117.44788 | 6019 ft | 119 kts | 311° |
| 2026-04-25 23:35 | 33.27248 | -117.45478 | 6015 ft | 119 kts | 312° |
| 2026-04-25 23:35 | 33.27829 | -117.46155 | 6013 ft | 118 kts | 313° |
| 2026-04-25 23:35 | 33.28418 | -117.46840 | 6011 ft | 118 kts | 310° |
| 2026-04-25 23:36 | 33.29003 | -117.47523 | 6013 ft | 117 kts | 311° |
| 2026-04-25 23:36 | 33.29583 | -117.48200 | 6012 ft | 116 kts | 311° |
| 2026-04-25 23:36 | 33.30163 | -117.48874 | 6010 ft | 116 kts | 310° |
| 2026-04-25 23:36 | 33.30740 | -117.49546 | 6006 ft | 115 kts | 310° |
| 2026-04-25 23:37 | 33.31315 | -117.50219 | 6010 ft | 116 kts | 311° |
| 2026-04-25 23:37 | 33.31901 | -117.50904 | 6010 ft | 120 kts | 311° |
| 2026-04-25 23:37 | 33.32498 | -117.51596 | 6012 ft | 121 kts | 313° |
| 2026-04-25 23:37 | 33.33095 | -117.52291 | 6008 ft | 119 kts | 312° |
| 2026-04-25 23:38 | 33.33688 | -117.52981 | 6007 ft | 119 kts | 310° |
| 2026-04-25 23:38 | 33.34281 | -117.53675 | 6006 ft | 119 kts | 311° |
| 2026-04-25 23:38 | 33.34870 | -117.54363 | 6003 ft | 117 kts | 311° |
| 2026-04-25 23:38 | 33.35452 | -117.55043 | 6002 ft | 117 kts | 313° |
| 2026-04-25 23:39 | 33.36038 | -117.55725 | 6005 ft | 119 kts | 312° |
| 2026-04-25 23:39 | 33.36636 | -117.56424 | 6003 ft | 121 kts | 311° |
| 2026-04-25 23:39 | 33.37235 | -117.57122 | 6004 ft | 119 kts | 311° |
| 2026-04-25 23:39 | 33.37822 | -117.57807 | 6001 ft | 117 kts | 310° |
| 2026-04-25 23:40 | 33.38402 | -117.58487 | 6000 ft | 117 kts | 312° |
| 2026-04-25 23:40 | 33.38988 | -117.59172 | 5998 ft | 118 kts | 310° |
| 2026-04-25 23:40 | 33.39575 | -117.59855 | 6000 ft | 117 kts | 310° |
| 2026-04-25 23:40 | 33.40162 | -117.60543 | 5997 ft | 118 kts | 311° |
| 2026-04-25 23:41 | 33.40745 | -117.61225 | 5993 ft | 116 kts | 311° |
| 2026-04-25 23:41 | 33.41321 | -117.61899 | 5993 ft | 115 kts | 311° |
| 2026-04-25 23:41 | 33.41896 | -117.62571 | 5993 ft | 116 kts | 312° |
| 2026-04-25 23:41 | 33.42474 | -117.63250 | 5993 ft | 117 kts | 310° |
| 2026-04-25 23:42 | 33.43061 | -117.63937 | 5993 ft | 119 kts | 310° |
| 2026-04-25 23:42 | 33.43656 | -117.64633 | 5995 ft | 120 kts | 310° |
| 2026-04-25 23:42 | 33.44255 | -117.65333 | 5991 ft | 121 kts | 309° |
| 2026-04-25 23:42 | 33.44852 | -117.66034 | 5994 ft | 123 kts | 310° |
| 2026-04-25 23:43 | 33.45478 | -117.66766 | 5993 ft | 129 kts | 310° |
| 2026-04-25 23:43 | 33.46127 | -117.67522 | 5996 ft | 130 kts | 311° |
| 2026-04-25 23:43 | 33.46769 | -117.68268 | 5987 ft | 127 kts | 311° |
| 2026-04-25 23:43 | 33.47387 | -117.68992 | 5981 ft | 123 kts | 310° |
| 2026-04-25 23:44 | 33.47992 | -117.69705 | 5980 ft | 121 kts | 311° |
| 2026-04-25 23:44 | 33.48593 | -117.70414 | 5978 ft | 122 kts | 310° |
| 2026-04-25 23:44 | 33.49199 | -117.71125 | 5982 ft | 122 kts | 311° |
| 2026-04-25 23:44 | 33.49804 | -117.71835 | 5982 ft | 122 kts | 310° |
| 2026-04-25 23:45 | 33.50408 | -117.72546 | 5988 ft | 122 kts | 310° |
| 2026-04-25 23:45 | 33.51010 | -117.73254 | 5985 ft | 121 kts | 310° |
| 2026-04-25 23:45 | 33.51613 | -117.73962 | 5982 ft | 121 kts | 310° |
| 2026-04-25 23:45 | 33.52209 | -117.74664 | 5986 ft | 120 kts | 310° |
| 2026-04-25 23:46 | 33.52805 | -117.75364 | 5992 ft | 120 kts | 310° |
| 2026-04-25 23:46 | 33.53398 | -117.76062 | 5991 ft | 122 kts | 310° |
| 2026-04-25 23:46 | 33.54003 | -117.76772 | 5994 ft | 121 kts | 311° |
| 2026-04-25 23:46 | 33.54607 | -117.77481 | 5996 ft | 121 kts | 311° |
| 2026-04-25 23:47 | 33.55211 | -117.78191 | 5998 ft | 121 kts | 310° |
| 2026-04-25 23:47 | 33.55810 | -117.78895 | 6001 ft | 121 kts | 311° |
| 2026-04-25 23:47 | 33.56412 | -117.79603 | 6005 ft | 121 kts | 311° |
| 2026-04-25 23:47 | 33.57009 | -117.80306 | 6003 ft | 120 kts | 311° |
| 2026-04-25 23:48 | 33.57612 | -117.81016 | 6005 ft | 122 kts | 311° |
| 2026-04-25 23:48 | 33.58214 | -117.81726 | 6006 ft | 121 kts | 311° |
| 2026-04-25 23:48 | 33.58816 | -117.82431 | 6011 ft | 120 kts | 311° |
| 2026-04-25 23:48 | 33.59417 | -117.83138 | 6005 ft | 121 kts | 310° |
| 2026-04-25 23:49 | 33.60021 | -117.83849 | 6010 ft | 122 kts | 311° |
| 2026-04-25 23:49 | 33.60618 | -117.84571 | 6013 ft | 121 kts | 308° |
| 2026-04-25 23:49 | 33.61036 | -117.85291 | 5998 ft | 120 kts | 292° |